Terminal Aerodrome Forecast
Issued by NWS Wilmington, NC

Current Version | Previous Version | Graphics & Text | Print | Product List | Glossary Off
Versions: 1 2 3 4 5 6 7 8 9 10 11 12 13 14 15 16 17

000
FTUS42 KILM 181100
TAFLBT
TAF
KLBT 181121Z 1812/1912 04010KT P6SM BKN060 BKN140
     FM182200 04013KT 6SM -RA BKN030 OVC050
     FM190000 03012KT 4SM RA BR BKN025 OVC050
     FM190400 04011KT 2SM RA BR BKN006 OVC025=

USA.gov is the U.S. government's official web portal to all federal, state and local government web resources and services.